Terminal Aerodrome Forecast
Issued by NWS

Home | Current Version | Previous Version | Graphics & Text | Print | Product List | Glossary On
Versions: 1 2 3 4 5 6 7 8 9 10 11 12 13 14 15 16 17 18 19 20 21 22 23 24
000
FTUS43 KBIS 261100
TAFDIK
TAF
KDIK 261135Z 2612/2712 14006KT 2SM -SN BR VV012
      TEMPO 2612/2615 4SM -SN SCT004 OVC008
     FM261500 13005KT P6SM VCSH BKN015
     FM261800 10005KT P6SM SCT018 BKN050 BKN130
     FM270200 14010KT P6SM VCSH BKN045 OVC120
     FM270600 16009KT P6SM -RASN BKN035 OVC070=

USA.gov is the U.S. government's official web portal to all federal, state and local government web resources and services.